createdAt,value
2023-01-11T05:00:26.106Z,100350.03
2023-01-11T05:02:54.858Z,100206.75
2023-01-11T05:05:21.577Z,100329.53
2023-01-11T05:07:50.379Z,100222.16
2023-01-11T05:10:17.112Z,100293.34
2023-01-11T05:12:43.901Z,100342.59
2023-01-11T05:15:12.050Z,100327.75
2023-01-11T05:17:38.625Z,100283.25
2023-01-11T05:20:05.454Z,100316.50
2023-01-11T05:22:31.962Z,100323.25
2023-01-11T05:24:58.591Z,100309.81
2023-01-11T05:27:25.145Z,100318.56
2023-01-11T05:29:51.667Z,100318.56
2023-01-11T05:32:18.282Z,100317.41
2023-01-11T05:34:44.860Z,100313.06
2023-01-11T05:37:14.012Z,100320.66
2023-01-11T05:39:40.580Z,100283.19
2023-01-11T05:42:07.171Z,100311.28
2023-01-11T05:44:52.354Z,100310.66
2023-01-11T05:47:18.898Z,100312.59
2023-01-11T05:49:45.497Z,100302.44
2023-01-11T05:52:12.129Z,100299.16
2023-01-11T05:54:38.650Z,100300.81
2023-01-11T05:57:10.450Z,100302.28
2023-01-11T05:59:39.998Z,100297.09
2023-01-11T06:02:06.687Z,100283.25
2023-01-11T06:04:33.405Z,100287.91
2023-01-11T06:07:00.006Z,100285.31
2023-01-11T06:09:26.690Z,100292.94
2023-01-11T06:11:53.262Z,100290.34
2023-01-11T06:14:19.855Z,100284.69
2023-01-11T06:16:46.493Z,100292.78
2023-01-11T06:19:13.081Z,100290.03
2023-01-11T06:21:39.815Z,100288.59
2023-01-11T06:24:06.604Z,100288.59
2023-01-11T06:26:33.278Z,100285.66
2023-01-11T06:28:59.889Z,100282.28
2023-01-11T06:31:26.485Z,100274.03
2023-01-11T06:33:53.077Z,100275.34
2023-01-11T06:36:19.638Z,100265.63
2023-01-11T06:38:46.245Z,100257.72
2023-01-11T06:41:12.860Z,100254.47
2023-01-11T06:43:41.620Z,100243.31
2023-01-11T06:46:13.211Z,100249.47
2023-01-11T06:48:39.823Z,100243.34
2023-01-11T06:51:06.449Z,100242.03
2023-01-11T06:53:32.975Z,100250.16
2023-01-11T06:55:59.546Z,100235.28
2023-01-11T06:58:26.193Z,100231.06
2023-01-11T07:00:53.438Z,100230.41
2023-01-11T07:03:24.126Z,100236.09
2023-01-11T07:05:51.482Z,100237.53
2023-01-11T07:08:18.045Z,100241.91
2023-01-11T07:10:45.187Z,100233.31
2023-01-11T07:13:11.951Z,100223.94
2023-01-11T07:15:38.652Z,100231.22
2023-01-11T07:18:05.276Z,100230.91
2023-01-11T07:20:32.030Z,100229.78
2023-01-11T07:22:59.380Z,100210.69
2023-01-11T07:25:29.055Z,100207.91
2023-01-11T07:27:59.743Z,100224.28
2023-01-11T07:30:27.677Z,100230.91
2023-01-11T07:32:54.632Z,100231.41
2023-01-11T07:35:21.312Z,100230.41
2023-01-11T07:37:47.874Z,100201.63
2023-01-11T07:40:16.296Z,100218.09
2023-01-11T07:43:11.659Z,100221.44
2023-01-11T07:45:45.795Z,100224.25
2023-01-11T07:48:13.352Z,100212.06
2023-01-11T07:50:42.232Z,100214.34
2023-01-11T07:53:10.003Z,100227.63
2023-01-11T07:55:37.766Z,100226.31
2023-01-11T07:58:04.388Z,100231.78
2023-01-11T08:00:30.989Z,100236.03
2023-01-11T08:02:57.809Z,100236.16
2023-01-11T08:05:24.981Z,100240.06
2023-01-11T08:07:51.578Z,100240.50
2023-01-11T08:10:18.222Z,100243.75
2023-01-11T08:13:06.844Z,100218.19
2023-01-11T08:15:33.966Z,100245.75
2023-01-11T08:18:00.617Z,100258.34
2023-01-11T08:20:27.403Z,100247.59
2023-01-11T08:22:54.064Z,100250.94
2023-01-11T08:25:20.751Z,100244.75
2023-01-11T08:27:47.323Z,100257.22
2023-01-11T08:30:14.024Z,100245.38
2023-01-11T08:32:41.427Z,100241.88
2023-01-11T08:35:08.401Z,100254.38
2023-01-11T08:37:34.985Z,100256.31
2023-01-11T08:40:01.614Z,100240.47
2023-01-11T08:42:28.236Z,100246.63
2023-01-11T08:44:55.504Z,100248.75
2023-01-11T08:47:22.543Z,100248.75
2023-01-11T08:49:49.092Z,100245.53
2023-01-11T08:52:15.665Z,100238.22
2023-01-11T08:54:42.379Z,100248.75
2023-01-11T08:57:08.963Z,100240.66
2023-01-11T08:59:35.632Z,100241.63
2023-01-11T09:02:02.718Z,100238.25
2023-01-11T09:04:29.301Z,100240.66
2023-01-11T09:06:55.883Z,100218.50
2023-01-11T09:09:22.551Z,100241.31
2023-01-11T09:11:56.524Z,100250.34
2023-01-11T09:14:24.482Z,100246.81
2023-01-11T09:16:51.791Z,100241.47
2023-01-11T09:19:18.329Z,100239.38
2023-01-11T09:21:47.954Z,100238.38
2023-01-11T09:24:14.600Z,100249.72
2023-01-11T09:26:44.053Z,100253.78
2023-01-11T09:29:11.192Z,100263.97
2023-01-11T09:31:37.942Z,100250.34
2023-01-11T09:34:05.394Z,100252.81
2023-01-11T09:36:33.252Z,100265.72
2023-01-11T09:39:02.162Z,100271.06
2023-01-11T09:41:51.014Z,100271.88
2023-01-11T09:44:21.319Z,100266.84
2023-01-11T09:46:51.290Z,100262.34
2023-01-11T09:49:23.102Z,100275.41
2023-01-11T09:51:50.753Z,100269.22
2023-01-11T09:54:19.784Z,100274.41
2023-01-11T09:57:13.056Z,100285.31
2023-01-11T10:00:10.350Z,100257.13
2023-01-11T10:03:00.229Z,100280.44
2023-01-11T10:06:09.136Z,100283.53
2023-01-11T10:18:31.138Z,100277.53
2023-01-11T10:18:53.525Z,100269.47
2023-01-11T10:21:47.465Z,100266.22
2023-01-11T10:24:30.686Z,100273.53
2023-01-11T10:27:02.003Z,100276.47
2023-01-11T10:29:53.832Z,100261.41
2023-01-11T10:32:34.949Z,100275.94
2023-01-11T10:35:29.817Z,100264.25
2023-01-11T10:38:22.500Z,100265.22
2023-01-11T10:41:06.495Z,100267.22
2023-01-11T10:43:40.362Z,100269.63
2023-01-11T10:46:15.766Z,100265.56
2023-01-11T10:48:43.442Z,100273.81
2023-01-11T10:51:32.009Z,100271.06
2023-01-11T10:54:16.103Z,100273.81
2023-01-11T10:57:02.609Z,100283.69
2023-01-11T10:59:50.711Z,100279.19
2023-01-11T11:02:35.370Z,100273.34
2023-01-11T11:05:06.370Z,100280.44
2023-01-11T11:07:51.636Z,100276.91
2023-01-11T11:10:35.657Z,100275.94
2023-01-11T11:13:37.889Z,100276.28
2023-01-11T11:16:14.951Z,100270.94
2023-01-11T11:18:42.528Z,100267.22
2023-01-11T11:21:24.090Z,100260.88
2023-01-11T11:23:55.880Z,100277.53
2023-01-11T11:26:22.926Z,100269.47
2023-01-11T11:29:02.916Z,100270.44
2023-01-11T11:31:29.681Z,100291.25
2023-01-11T11:33:56.329Z,100282.03
2023-01-11T11:36:22.916Z,100296.13
2023-01-11T11:39:09.713Z,100306.66
2023-01-11T11:41:50.980Z,100298.41
2023-01-11T11:44:25.794Z,100297.75
2023-01-11T11:47:01.396Z,100304.41
2023-01-11T11:49:29.562Z,100293.56
2023-01-11T11:51:56.249Z,100288.34
2023-01-11T11:54:34.335Z,100289.19
2023-01-11T11:57:13.707Z,100287.44
2023-01-11T11:59:43.684Z,100279.00
2023-01-11T12:02:21.933Z,100278.69
2023-01-11T12:04:48.740Z,100278.69
2023-01-11T12:07:22.140Z,100273.69
2023-01-11T12:09:59.035Z,100274.31
2023-01-11T12:12:27.826Z,100280.97
2023-01-11T12:15:06.644Z,100268.19
2023-01-11T12:17:33.302Z,100269.28
2023-01-11T12:19:59.913Z,100259.38
2023-01-11T12:22:28.040Z,100265.69
2023-01-11T12:25:25.695Z,100268.66
2023-01-11T12:27:59.163Z,100257.50
2023-01-11T12:30:34.710Z,100264.59
2023-01-11T12:33:09.483Z,100255.53
2023-01-11T12:35:39.143Z,100247.16
2023-01-11T12:38:16.375Z,100232.44
2023-01-11T12:40:49.191Z,100232.47
2023-01-11T12:43:18.878Z,100234.41
2023-01-11T12:46:17.079Z,100240.72
2023-01-11T12:49:13.261Z,100249.94
2023-01-11T12:51:58.775Z,100259.97
2023-01-11T12:54:25.604Z,100269.19
2023-01-11T12:57:15.280Z,100275.66
2023-01-11T12:59:51.004Z,100268.38
2023-01-11T13:02:20.421Z,100280.16
2023-01-11T13:04:53.300Z,100275.00
2023-01-11T13:07:25.727Z,100287.28
2023-01-11T13:10:05.468Z,100270.44
2023-01-11T13:12:37.681Z,100289.91
2023-01-11T13:15:19.362Z,100295.88
2023-01-11T13:17:57.468Z,100293.47
2023-01-11T13:20:59.908Z,100293.63
2023-01-11T13:23:40.557Z,100293.78
2023-01-11T13:26:39.488Z,100307.03
2023-01-11T13:29:11.352Z,100297.00
2023-01-11T13:31:37.967Z,100302.59
2023-01-11T13:34:17.061Z,100295.63
2023-01-11T13:36:45.781Z,100300.47
2023-01-11T13:39:34.249Z,100300.63
2023-01-11T13:42:04.261Z,100294.97
2023-01-11T13:44:32.045Z,100298.19
2023-01-11T13:47:01.680Z,100302.53
2023-01-11T13:49:56.213Z,100311.81
2023-01-11T13:52:26.116Z,100310.16
2023-01-11T13:55:02.000Z,100315.66
2023-01-11T13:57:54.933Z,100321.66
2023-01-11T14:00:50.020Z,100303.69
2023-01-11T14:03:25.442Z,100336.25
2023-01-11T14:06:02.357Z,100339.00
2023-01-11T14:08:47.675Z,100317.28
2023-01-11T14:11:32.696Z,100340.81
2023-01-11T14:14:16.624Z,100346.38
2023-01-11T14:17:09.725Z,100355.41
2023-01-11T14:19:45.611Z,100354.47
2023-01-11T14:22:34.015Z,100360.31
2023-01-11T14:25:01.965Z,100349.38
2023-01-11T14:28:02.907Z,100368.72
2023-01-11T14:30:41.864Z,100375.41
2023-01-11T14:33:33.598Z,100376.47
2023-01-11T14:36:34.131Z,100363.16
2023-01-11T14:39:18.593Z,100383.09
2023-01-11T14:42:30.470Z,100389.97
2023-01-11T14:45:04.432Z,100390.59
2023-01-11T14:47:54.250Z,100397.31
2023-01-11T14:50:29.936Z,100391.34
2023-01-11T14:52:58.459Z,100406.31
2023-01-11T14:55:30.053Z,100406.94
2023-01-11T14:57:56.581Z,100416.25
2023-01-11T15:00:23.060Z,100423.03
2023-01-11T15:02:53.434Z,100421.75
2023-01-11T15:05:32.833Z,100432.63
2023-01-11T15:08:14.621Z,100428.56
2023-01-11T15:11:13.282Z,100437.00
2023-01-11T15:13:56.467Z,100454.50
2023-01-11T15:16:46.457Z,100449.63
2023-01-11T15:19:25.222Z,100454.72
2023-01-11T15:21:53.351Z,100445.13
2023-01-11T15:24:27.527Z,100456.59
2023-01-11T15:26:54.422Z,100438.66
2023-01-11T15:29:22.656Z,100458.47
2023-01-11T15:32:01.520Z,100450.41
2023-01-11T15:34:31.071Z,100457.53
2023-01-11T15:37:00.578Z,100455.28
2023-01-11T15:39:54.345Z,100461.59
2023-01-11T15:42:38.358Z,100458.16
2023-01-11T15:46:03.773Z,100469.84
2023-01-11T15:48:42.090Z,100464.16
2023-01-11T15:51:13.456Z,100473.91
2023-01-11T15:54:01.822Z,100488.31
2023-01-11T15:57:12.828Z,100497.34
2023-01-11T16:00:16.214Z,100504.00
2023-01-11T16:02:57.803Z,100514.31
2023-01-11T16:05:26.193Z,100518.34
2023-01-11T16:08:17.121Z,100507.97
2023-01-11T16:10:56.285Z,100538.66
2023-01-11T16:13:38.087Z,100535.63
2023-01-11T16:16:17.838Z,100538.84
2023-01-11T16:18:55.157Z,100552.59
2023-01-11T16:21:30.861Z,100567.31
2023-01-11T16:23:57.597Z,100570.69
2023-01-11T16:26:24.280Z,100567.13
2023-01-11T16:28:52.584Z,100571.72
2023-01-11T16:31:19.462Z,100579.34
2023-01-11T16:33:49.585Z,100573.63
2023-01-11T16:36:23.504Z,100586.47
2023-01-11T16:39:06.174Z,100591.97
2023-01-11T16:41:49.813Z,100582.59
2023-01-11T16:44:27.577Z,100581.59
2023-01-11T16:47:03.464Z,100610.34
2023-01-11T16:49:30.118Z,100609.84
2023-01-11T16:51:57.713Z,100592.34
2023-01-11T16:54:26.357Z,100605.34
2023-01-11T16:56:52.933Z,100615.72
2023-01-11T16:59:24.629Z,100617.34
2023-01-11T17:01:55.891Z,100619.78
2023-01-11T17:04:34.056Z,100615.72
2023-01-11T17:07:22.366Z,100626.47
2023-01-11T17:09:49.267Z,100641.97
2023-01-11T17:12:23.411Z,100641.59
2023-01-11T17:14:58.972Z,100653.72
2023-01-11T17:17:27.804Z,100647.41
2023-01-11T17:19:54.887Z,100667.91
2023-01-11T17:22:29.858Z,100668.72
2023-01-11T17:25:05.688Z,100677.03
2023-01-11T17:27:35.583Z,100669.13
2023-01-11T17:30:02.621Z,100653.06
2023-01-11T17:32:41.080Z,100676.00
2023-01-11T17:35:16.913Z,100665.81
2023-01-11T17:37:48.496Z,100658.94
2023-01-11T17:40:23.716Z,100682.94
2023-01-11T17:43:09.085Z,100680.31
2023-01-11T17:45:35.953Z,100697.81
2023-01-11T17:48:13.131Z,100696.78
2023-01-11T17:50:56.722Z,100709.19
2023-01-11T17:53:50.486Z,100704.91
2023-01-11T17:56:32.343Z,100705.16
2023-01-11T17:59:29.928Z,100712.84
2023-01-11T18:02:04.630Z,100707.34
2023-01-11T18:04:31.521Z,100697.09
2023-01-11T18:07:17.797Z,100710.53
2023-01-11T18:09:46.763Z,100728.22
2023-01-11T18:12:18.351Z,100733.13
2023-01-11T18:14:55.202Z,100734.84
2023-01-11T18:17:25.037Z,100741.38
2023-01-11T18:19:51.924Z,100747.78
2023-01-11T18:22:37.827Z,100741.47
2023-01-11T18:25:18.233Z,100740.34
2023-01-11T18:27:46.668Z,100745.47
2023-01-11T18:30:35.625Z,100759.91
2023-01-11T18:33:03.002Z,100758.06
2023-01-11T18:35:30.201Z,100744.84
2023-01-11T18:37:57.349Z,100745.66
2023-01-11T18:40:26.606Z,100765.22
2023-01-11T18:42:54.336Z,100743.72
2023-01-11T18:45:22.069Z,100761.22
2023-01-11T18:47:54.702Z,100776.22
2023-01-11T18:50:24.375Z,100781.72
2023-01-11T18:52:51.607Z,100785.28
2023-01-11T18:55:19.060Z,100785.78
2023-01-11T18:57:48.715Z,100790.19
2023-01-11T19:00:19.309Z,100798.44
2023-01-11T19:02:47.445Z,100800.34
2023-01-11T19:05:16.888Z,100797.38
2023-01-11T19:07:44.978Z,100794.16
2023-01-11T19:10:17.082Z,100769.69
2023-01-11T19:12:46.933Z,100806.78
2023-01-11T19:15:14.056Z,100820.91
2023-01-11T19:17:41.207Z,100817.38
2023-01-11T19:20:10.967Z,100820.44
2023-01-11T19:22:38.866Z,100823.19
2023-01-11T19:25:09.810Z,100836.41
2023-01-11T19:27:37.475Z,100838.03
2023-01-11T19:30:05.728Z,100832.84
2023-01-11T19:32:33.712Z,100817.78
2023-01-11T19:35:00.538Z,100832.53
2023-01-11T19:37:27.784Z,100805.75
2023-01-11T19:39:54.436Z,100824.91
2023-01-11T19:42:22.111Z,100823.19
2023-01-11T19:44:48.838Z,100833.34
2023-01-11T19:47:15.700Z,100827.03
2023-01-11T19:49:42.623Z,100839.69
2023-01-11T19:52:13.890Z,100839.16
2023-01-11T19:54:43.858Z,100838.56
2023-01-11T19:57:14.779Z,100837.75
2023-01-11T19:59:41.743Z,100813.47
2023-01-11T20:02:10.873Z,100838.03
2023-01-11T20:04:37.606Z,100825.41
2023-01-11T20:07:04.976Z,100833.06
2023-01-11T20:09:31.652Z,100826.03
2023-01-11T20:11:58.926Z,100793.63
2023-01-11T20:14:25.784Z,100834.78
2023-01-11T20:16:52.398Z,100843.53
2023-01-11T20:19:19.181Z,100839.69
2023-01-11T20:21:45.897Z,100836.41
2023-01-11T20:24:13.159Z,100831.44
2023-01-11T20:26:40.524Z,100815.34
2023-01-11T20:29:07.787Z,100831.91
2023-01-11T20:31:35.241Z,100823.66
2023-01-11T20:34:05.585Z,100827.56
2023-01-11T20:36:32.219Z,100831.44
2023-01-11T20:39:00.506Z,100838.56
2023-01-11T20:41:46.833Z,100836.09
2023-01-11T20:44:24.412Z,100835.47
2023-01-11T20:46:51.952Z,100835.28
2023-01-11T20:49:18.878Z,100813.47
2023-01-11T20:51:46.005Z,100824.81
2023-01-11T20:54:12.895Z,100833.88
2023-01-11T20:56:39.728Z,100824.28
2023-01-11T20:59:07.307Z,100831.13
2023-01-11T21:01:34.047Z,100829.19
2023-01-11T21:04:04.838Z,100829.19
2023-01-11T21:06:31.972Z,100832.44
2023-01-11T21:08:59.417Z,100835.69
2023-01-11T21:11:26.239Z,100823.56
2023-01-11T21:13:53.915Z,100810.72
2023-01-11T21:16:22.442Z,100811.84
2023-01-11T21:19:04.851Z,100816.22
2023-01-11T21:21:32.708Z,100801.66
2023-01-11T21:24:00.951Z,100796.78
2023-01-11T21:26:27.786Z,100798.91
2023-01-11T21:28:58.677Z,100790.47
2023-01-11T21:31:32.285Z,100789.66
2023-01-11T21:33:59.574Z,100780.78
2023-01-11T21:36:26.863Z,100797.16
2023-01-11T21:38:54.216Z,100786.16
2023-01-11T21:41:40.794Z,100778.84
2023-01-11T21:44:08.017Z,100778.56
2023-01-11T21:46:34.876Z,100773.53
2023-01-11T21:49:01.574Z,100765.41
2023-01-11T21:51:29.982Z,100764.09
2023-01-11T21:53:57.372Z,100774.91
2023-01-11T21:56:24.158Z,100765.53
2023-01-11T21:58:50.898Z,100761.81
2023-01-11T22:01:24.051Z,100759.06
2023-01-11T22:03:50.818Z,100769.28
2023-01-11T22:06:17.938Z,100775.56
2023-01-11T22:08:45.049Z,100754.84
2023-01-11T22:11:12.302Z,100771.13
2023-01-11T22:13:39.104Z,100754.41
2023-01-11T22:16:07.530Z,100718.22
2023-01-11T22:18:34.763Z,100797.38
2023-01-11T22:21:06.304Z,100776.50
2023-01-11T22:23:32.990Z,100798.03
2023-01-11T22:26:04.636Z,100764.13
2023-01-11T22:28:31.305Z,100746.50
